Time,TemperatureF,DewpointF,PressureIn,WindDirection,WindDirectionDegrees,WindSpeedMPH,WindSpeedGustMPH,Humidity,HourlyPrecipIn,Conditions,Clouds,dailyrainin,SoftwareType,DateUTC
2013-07-10 07:28:00,71.4,66.0,28.82,SW,215,0.0,0.0,83,0.00,,SCT120,0.00,VWS V14.01,2013-07-10 11:28:00,
2013-07-10 07:29:00,71.4,66.0,28.82,SW,215,0.0,0.0,83,0.00,,SCT120,0.00,VWS V14.01,2013-07-10 11:29:00,
2013-07-10 07:34:00,71.6,65.8,28.82,SW,215,0.0,0.0,82,0.00,,CLR,0.00,VWS V14.01,2013-07-10 11:34:00,
2013-07-10 07:39:00,71.6,65.5,28.82,SW,215,0.0,0.0,81,0.00,,CLR,0.00,VWS V14.01,2013-07-10 11:39:00,
2013-07-10 07:44:00,72.1,65.3,28.82,SW,215,0.0,0.0,79,0.00,,CLR,0.00,VWS V14.01,2013-07-10 11:44:00,
2013-07-10 07:50:00,72.3,65.1,28.82,SW,215,0.0,0.0,78,0.00,,CLR,0.00,VWS V14.01,2013-07-10 11:50:00,
2013-07-10 07:55:00,72.7,63.9,28.82,SW,215,0.0,0.0,74,0.00,,CLR,0.00,VWS V14.01,2013-07-10 11:55:00,
2013-07-10 08:00:00,72.7,62.7,28.82,SW,215,0.0,0.0,71,0.00,,CLR,0.00,VWS V14.01,2013-07-10 12:00:00,
2013-07-10 08:05:00,73.0,60.6,28.82,SW,215,0.0,0.0,65,0.00,,FEW120,0.00,VWS V14.01,2013-07-10 12:05:00,
2013-07-10 08:15:00,74.1,59.4,28.82,SW,215,0.0,0.0,60,0.00,,FEW120,0.00,VWS V14.01,2013-07-10 12:15:00,
2013-07-10 08:20:00,74.3,60.0,28.85,SW,215,0.0,0.0,61,0.00,,FEW120,0.00,VWS V14.01,2013-07-10 12:20:00,
2013-07-10 08:25:00,74.5,59.2,28.85,SW,215,0.0,0.0,59,0.00,,FEW120,0.00,VWS V14.01,2013-07-10 12:25:00,
2013-07-10 08:30:00,74.7,58.9,28.85,SW,215,0.0,0.0,58,0.00,,FEW120,0.00,VWS V14.01,2013-07-10 12:30:00,
2013-07-10 08:35:00,74.8,59.6,28.85,SW,215,0.0,0.0,59,0.00,,FEW120,0.00,VWS V14.01,2013-07-10 12:35:00,
2013-07-10 08:40:00,75.0,59.7,28.85,SW,215,0.0,0.0,59,0.00,,FEW120,0.00,VWS V14.01,2013-07-10 12:40:00,
2013-07-10 08:45:00,75.2,58.4,28.85,SW,215,0.0,0.0,56,0.00,,FEW120,0.00,VWS V14.01,2013-07-10 12:45:00,
2013-07-10 08:50:00,75.2,56.4,28.85,SW,215,0.0,0.0,52,0.00,,FEW120,0.00,VWS V14.01,2013-07-10 12:50:00,
2013-07-10 08:55:00,75.2,57.4,28.85,SW,215,0.0,0.0,54,0.00,,FEW120,0.00,VWS V14.01,2013-07-10 12:55:00,
2013-07-10 09:00:00,75.2,55.8,28.85,SW,215,0.0,0.0,51,0.00,,FEW120,0.00,VWS V14.01,2013-07-10 13:00:00,
2013-07-10 09:05:00,75.6,57.2,28.85,SW,215,0.0,0.0,53,0.00,,BKN090,0.00,VWS V14.01,2013-07-10 13:05:00,
2013-07-10 09:11:00,75.6,57.2,28.85,SW,215,0.0,0.0,53,0.00,,BKN090,0.00,VWS V14.01,2013-07-10 13:11:00,
2013-07-10 09:16:00,75.9,56.0,28.85,SW,215,0.0,0.0,50,0.00,,BKN090,0.00,VWS V14.01,2013-07-10 13:16:00,
2013-07-10 09:21:00,76.1,56.1,28.85,SW,215,0.0,0.0,50,0.00,,BKN090,0.00,VWS V14.01,2013-07-10 13:21:00,
2013-07-10 09:26:00,76.3,57.4,28.85,SW,215,2.7,2.7,52,0.00,,BKN090,0.00,VWS V14.01,2013-07-10 13:26:00,
2013-07-10 09:31:00,76.5,58.1,28.85,SW,215,0.0,0.0,53,0.00,,BKN090,0.00,VWS V14.01,2013-07-10 13:31:00,
2013-07-10 09:36:00,76.5,58.1,28.85,SW,215,0.0,0.0,53,0.00,,BKN090,0.00,VWS V14.01,2013-07-10 13:36:00,
2013-07-10 09:41:00,76.8,58.9,28.85,SW,215,0.0,0.0,54,0.00,,BKN090,0.00,VWS V14.01,2013-07-10 13:41:00,
2013-07-10 09:46:00,76.6,58.2,28.85,SW,215,2.2,2.7,53,0.00,,BKN090,0.00,VWS V14.01,2013-07-10 13:46:00,
2013-07-10 09:51:00,76.8,58.9,28.85,SW,215,0.0,0.0,54,0.00,,BKN090,0.00,VWS V14.01,2013-07-10 13:51:00,
2013-07-10 09:57:00,76.8,57.3,28.85,SW,215,2.7,2.7,51,0.00,,BKN090,0.00,VWS V14.01,2013-07-10 13:57:00,
2013-07-10 10:02:00,77.0,58.0,28.85,SSW,202,0.0,0.0,52,0.00,,BKN090,0.00,VWS V14.01,2013-07-10 14:02:00,
2013-07-10 10:07:00,77.7,58.7,28.82,SSW,202,0.0,0.0,52,0.00,,BKN095,0.00,VWS V14.01,2013-07-10 14:07:00,
2013-07-10 10:12:00,79.0,56.5,28.82,SSW,202,0.0,0.0,46,0.00,,BKN095,0.00,VWS V14.01,2013-07-10 14:12:00,
2013-07-10 10:17:00,79.0,54.6,28.82,SSW,192,0.0,2.7,43,0.00,,BKN095,0.00,VWS V14.01,2013-07-10 14:17:00,
2013-07-10 10:22:00,78.8,55.7,28.82,SSW,192,0.0,0.0,45,0.00,,BKN095,0.00,VWS V14.01,2013-07-10 14:22:00,
2013-07-10 10:27:00,79.2,55.4,28.82,SSW,192,0.0,0.0,44,0.00,,BKN095,0.00,VWS V14.01,2013-07-10 14:27:00,
2013-07-10 10:32:00,79.3,55.6,28.82,SSW,192,0.0,0.0,44,0.00,,BKN095,0.00,VWS V14.01,2013-07-10 14:32:00,
2013-07-10 10:37:00,79.7,55.2,28.82,SSW,192,0.0,0.0,43,0.00,,BKN095,0.00,VWS V14.01,2013-07-10 14:37:00,
2013-07-10 10:42:00,79.9,55.4,28.82,SSW,192,2.2,2.2,43,0.00,,BKN095,0.00,VWS V14.01,2013-07-10 14:42:00,
2013-07-10 10:47:00,80.2,54.4,28.82,SSW,192,0.0,2.2,41,0.00,,BKN095,0.00,VWS V14.01,2013-07-10 14:47:00,
2013-07-10 10:53:00,80.4,53.9,28.82,SSW,192,0.0,0.0,40,0.00,,BKN095,0.00,VWS V14.01,2013-07-10 14:53:00,
2013-07-10 10:58:00,80.4,53.9,28.82,SSW,192,0.0,0.0,40,0.00,,SCT095,0.00,VWS V14.01,2013-07-10 14:58:00,
2013-07-10 11:03:00,80.8,54.2,28.82,SSW,192,0.0,0.0,40,0.00,,SCT095,0.00,VWS V14.01,2013-07-10 15:03:00,
2013-07-10 11:08:00,81.3,54.0,28.82,SSW,192,2.2,2.2,39,0.00,,SCT095,0.00,VWS V14.01,2013-07-10 15:08:00,
2013-07-10 11:13:00,81.5,54.9,28.82,SSW,192,0.0,0.0,40,0.00,,SCT095,0.00,VWS V14.01,2013-07-10 15:13:00,
2013-07-10 11:18:00,81.9,55.2,28.82,SSW,192,0.0,0.0,40,0.00,,SCT095,0.00,VWS V14.01,2013-07-10 15:18:00,
2013-07-10 11:23:00,82.0,54.7,28.82,SSE,165,0.0,0.0,39,0.00,,SCT095,0.00,VWS V14.01,2013-07-10 15:23:00,
2013-07-10 11:28:00,82.4,52.8,28.82,SSW,211,2.2,2.2,36,0.00,,SCT095,0.00,VWS V14.01,2013-07-10 15:28:00,
2013-07-10 11:33:00,82.8,53.1,28.82,SW,216,0.0,2.2,36,0.00,,SCT095,0.00,VWS V14.01,2013-07-10 15:33:00,
2013-07-10 11:38:00,83.1,51.9,28.82,NNW,336,0.0,0.0,34,0.00,,SCT095,0.00,VWS V14.01,2013-07-10 15:38:00,
2013-07-10 11:43:00,82.9,52.5,28.82,SSW,203,0.0,0.0,35,0.00,,SCT095,0.00,VWS V14.01,2013-07-10 15:43:00,
2013-07-10 11:48:00,82.8,53.1,28.82,West,274,0.0,0.0,36,0.00,,SCT095,0.00,VWS V14.01,2013-07-10 15:48:00,
2013-07-10 11:53:00,82.6,52.2,28.82,West,268,0.0,0.0,35,0.00,,SCT095,0.00,VWS V14.01,2013-07-10 15:53:00,
2013-07-10 11:59:00,82.8,52.3,28.82,West,268,0.0,0.0,35,0.00,,SCT095,0.00,VWS V14.01,2013-07-10 15:59:00,
2013-07-10 12:04:00,82.9,54.0,28.82,SW,215,2.2,2.2,37,0.00,,FEW110,0.00,VWS V14.01,2013-07-10 16:04:00,
2013-07-10 12:09:00,82.9,51.7,28.82,WSW,241,0.0,2.2,34,0.00,,FEW110,0.00,VWS V14.01,2013-07-10 16:09:00,
2013-07-10 12:14:00,82.9,51.7,28.82,WSW,241,2.2,2.2,34,0.00,,FEW110,0.00,VWS V14.01,2013-07-10 16:14:00,
2013-07-10 12:19:00,83.3,52.0,28.82,WSW,241,2.2,2.2,34,0.00,,FEW110,0.00,VWS V14.01,2013-07-10 16:19:00,
2013-07-10 12:24:00,83.7,51.5,28.82,WSW,241,2.2,2.2,33,0.00,,FEW110,0.00,VWS V14.01,2013-07-10 16:24:00,
2013-07-10 12:29:00,84.0,51.0,28.82,SSW,192,3.6,4.0,32,0.00,,FEW110,0.00,VWS V14.01,2013-07-10 16:29:00,
2013-07-10 12:34:00,84.0,51.8,28.82,SSW,203,2.7,2.7,33,0.00,,FEW110,0.00,VWS V14.01,2013-07-10 16:34:00,
2013-07-10 12:39:00,84.7,50.8,28.82,SSE,154,3.1,3.1,31,0.00,,FEW110,0.00,VWS V14.01,2013-07-10 16:39:00,
2013-07-10 12:44:00,85.3,51.2,28.82,South,172,3.6,3.6,31,0.00,,FEW110,0.00,VWS V14.01,2013-07-10 16:44:00,
2013-07-10 12:49:00,86.0,50.1,28.82,NNW,330,2.2,2.2,29,0.00,,FEW110,0.00,VWS V14.01,2013-07-10 16:49:00,
2013-07-10 12:55:00,86.7,52.5,28.82,South,183,2.7,2.7,31,0.00,,FEW110,0.00,VWS V14.01,2013-07-10 16:55:00,
2013-07-10 13:00:00,86.5,50.5,28.82,ESE,103,2.7,2.7,29,0.00,,SCT110,0.00,VWS V14.01,2013-07-10 17:00:00,
2013-07-10 13:05:00,86.0,50.1,28.82,East,83,0.0,0.0,29,0.00,,SCT110,0.00,VWS V14.01,2013-07-10 17:05:00,
2013-07-10 13:10:00,86.4,50.4,28.82,SE,139,0.0,0.0,29,0.00,,SCT110,0.00,VWS V14.01,2013-07-10 17:10:00,
2013-07-10 13:15:00,86.7,50.7,28.82,SW,215,0.0,0.0,29,0.00,,SCT110,0.00,VWS V14.01,2013-07-10 17:15:00,
2013-07-10 13:20:00,87.3,53.8,28.79,SW,215,0.0,0.0,32,0.00,,SCT110,0.00,VWS V14.01,2013-07-10 17:20:00,
2013-07-10 13:25:00,87.8,53.4,28.79,NNE,33,0.0,0.0,31,0.00,,SCT110,0.00,VWS V14.01,2013-07-10 17:25:00,
2013-07-10 13:30:00,88.0,52.7,28.79,SSW,202,0.0,5.4,30,0.00,,SCT110,0.00,VWS V14.01,2013-07-10 17:30:00,
2013-07-10 13:35:00,87.6,53.3,28.79,ESE,120,0.0,0.0,31,0.00,,SCT110,0.00,VWS V14.01,2013-07-10 17:35:00,
2013-07-10 13:40:00,87.6,53.3,28.79,North,5,2.7,2.7,31,0.00,,SCT110,0.00,VWS V14.01,2013-07-10 17:40:00,
2013-07-10 13:45:00,87.3,54.7,28.79,ESE,116,0.0,0.0,33,0.00,,SCT110,0.00,VWS V14.01,2013-07-10 17:45:00,
2013-07-10 13:50:00,87.4,53.1,28.79,ESE,120,0.0,0.0,31,0.00,,SCT110,0.00,VWS V14.01,2013-07-10 17:50:00,
2013-07-10 13:55:00,87.3,54.7,28.79,NE,40,0.0,0.0,33,0.00,,SCT110,0.00,VWS V14.01,2013-07-10 17:55:00,
2013-07-10 14:00:00,86.4,53.0,28.79,NW,309,2.2,2.2,32,0.00,,SCT110,0.00,VWS V14.01,2013-07-10 18:00:00,
2013-07-10 14:05:00,86.9,55.2,28.79,SSW,197,3.6,3.6,34,0.00,,SCT110,0.00,VWS V14.01,2013-07-10 18:05:00,
2013-07-10 14:11:00,86.7,54.2,28.79,South,186,2.7,4.0,33,0.00,,SCT110,0.00,VWS V14.01,2013-07-10 18:11:00,
2013-07-10 14:16:00,86.0,53.6,28.79,SSE,154,0.0,0.0,33,0.00,,SCT110,0.00,VWS V14.01,2013-07-10 18:16:00,
2013-07-10 14:21:00,85.6,54.1,28.76,SSE,165,0.0,0.0,34,0.00,,SCT110,0.00,VWS V14.01,2013-07-10 18:21:00,
2013-07-10 14:26:00,84.7,54.9,28.76,SW,214,2.7,2.7,36,0.00,,SCT110,0.00,VWS V14.01,2013-07-10 18:26:00,
2013-07-10 14:31:00,83.8,57.7,28.76,SSE,160,0.0,0.0,41,0.00,,SCT110,0.00,VWS V14.01,2013-07-10 18:31:00,
2013-07-10 14:36:00,82.2,59.4,28.76,WSW,237,2.7,2.7,46,0.00,,SCT110,0.00,VWS V14.01,2013-07-10 18:36:00,
2013-07-10 14:41:00,80.2,61.0,28.76,SSW,207,4.9,4.9,52,0.00,,SCT110,0.00,VWS V14.01,2013-07-10 18:41:00,
2013-07-10 14:46:00,78.8,63.8,28.76,East,86,0.0,0.0,60,0.08,,SCT110,0.08,VWS V14.01,2013-07-10 18:46:00,
2013-07-10 14:51:00,77.7,64.1,28.76,NE,54,0.0,0.0,63,0.20,,SCT110,0.20,VWS V14.01,2013-07-10 18:51:00,
2013-07-10 14:56:00,77.7,66.3,28.76,NE,54,0.0,0.0,68,0.24,,SCT110,0.24,VWS V14.01,2013-07-10 18:56:00,
2013-07-10 15:01:00,72.7,56.6,28.76,South,190,10.1,13.6,57,0.24,,BKN035,0.24,VWS V14.01,2013-07-10 19:01:00,
2013-07-10 15:06:00,71.2,58.9,28.76,SW,230,6.3,8.7,65,0.31,,BKN035,0.31,VWS V14.01,2013-07-10 19:06:00,
2013-07-10 15:11:00,71.4,59.0,28.76,SW,214,2.7,2.7,65,0.31,,BKN035,0.31,VWS V14.01,2013-07-10 19:11:00,
2013-07-10 15:16:00,71.2,61.0,28.76,SSW,213,2.7,2.7,70,0.31,,BKN035,0.31,VWS V14.01,2013-07-10 19:16:00,
2013-07-10 15:21:00,71.4,63.1,28.79,South,174,0.0,0.0,75,0.31,,BKN035,0.31,VWS V14.01,2013-07-10 19:21:00,
2013-07-10 15:27:00,72.0,66.5,28.79,South,174,0.0,0.0,83,0.31,,BKN035,0.31,VWS V14.01,2013-07-10 19:27:00,
2013-07-10 15:32:00,72.1,67.0,28.79,South,174,0.0,0.0,84,0.31,,BKN035,0.31,VWS V14.01,2013-07-10 19:32:00,
2013-07-10 15:37:00,72.0,67.2,28.79,South,173,0.0,0.0,85,0.31,,,0.31,VWS V14.01,2013-07-10 19:37:00,
2013-07-10 15:42:00,72.1,67.4,28.79,ENE,68,0.0,2.2,85,0.31,,,0.31,VWS V14.01,2013-07-10 19:42:00,
2013-07-10 15:47:00,72.0,67.2,28.79,North,357,0.0,0.0,85,0.24,,,0.31,VWS V14.01,2013-07-10 19:47:00,
2013-07-10 15:52:00,71.8,66.3,28.79,SE,126,0.0,0.0,83,0.12,,,0.31,VWS V14.01,2013-07-10 19:52:00,
2013-07-10 15:57:00,71.4,66.0,28.79,SE,125,0.0,0.0,83,0.08,,,0.31,VWS V14.01,2013-07-10 19:57:00,
2013-07-10 16:02:00,71.8,66.0,28.79,SSW,211,3.1,3.1,82,0.12,,,0.35,VWS V14.01,2013-07-10 20:02:00,
2013-07-10 16:07:00,71.8,65.6,28.79,South,169,2.7,2.7,81,0.12,,,0.35,VWS V14.01,2013-07-10 20:07:00,
2013-07-10 16:12:00,71.6,65.8,28.79,South,181,5.4,5.4,82,0.04,,,0.35,VWS V14.01,2013-07-10 20:12:00,
2013-07-10 16:17:00,71.4,66.0,28.82,NE,36,0.0,0.0,83,0.31,,,0.63,VWS V14.01,2013-07-10 20:17:00,
2013-07-10 16:22:00,71.2,66.2,28.82,NE,36,0.0,0.0,84,0.31,,,0.63,VWS V14.01,2013-07-10 20:22:00,
2013-07-10 16:27:00,71.2,67.2,28.82,NE,36,0.0,0.0,87,0.94,,,1.26,VWS V14.01,2013-07-10 20:27:00,
2013-07-10 16:33:00,71.2,67.5,28.79,NE,36,0.0,0.0,88,1.02,,BKN080,1.34,VWS V14.01,2013-07-10 20:33:00,
2013-07-10 16:38:00,71.4,68.0,28.79,NE,36,0.0,0.0,89,1.10,,BKN080,1.42,VWS V14.01,2013-07-10 20:38:00,
2013-07-10 16:43:00,71.2,67.8,28.79,NE,36,0.0,0.0,89,1.14,,BKN080,1.46,VWS V14.01,2013-07-10 20:43:00,
2013-07-10 16:48:00,71.1,67.7,28.79,NE,36,0.0,0.0,89,1.14,,BKN080,1.46,VWS V14.01,2013-07-10 20:48:00,
2013-07-10 16:53:00,71.1,68.0,28.79,NE,36,0.0,0.0,90,1.14,,BKN080,1.46,VWS V14.01,2013-07-10 20:53:00,
2013-07-10 16:58:00,71.2,68.2,28.79,NE,36,0.0,0.0,90,1.14,,BKN080,1.46,VWS V14.01,2013-07-10 20:58:00,
2013-07-10 17:03:00,71.6,68.5,28.79,NE,36,0.0,0.0,90,1.10,,BKN095,1.46,VWS V14.01,2013-07-10 21:03:00,
2013-07-10 17:08:00,71.6,68.5,28.79,NE,36,0.0,0.0,90,1.10,,BKN095,1.46,VWS V14.01,2013-07-10 21:08:00,
2013-07-10 17:13:00,71.6,68.5,28.79,NE,36,0.0,0.0,90,1.22,,BKN095,1.57,VWS V14.01,2013-07-10 21:13:00,
2013-07-10 17:18:00,71.6,68.5,28.79,NE,36,0.0,0.0,90,0.94,,BKN095,1.57,VWS V14.01,2013-07-10 21:18:00,
2013-07-10 17:23:00,71.4,68.3,28.79,NE,36,0.0,0.0,90,1.02,,BKN095,1.65,VWS V14.01,2013-07-10 21:23:00,
2013-07-10 17:28:00,71.4,68.7,28.79,NE,36,0.0,0.0,91,0.39,,BKN095,1.65,VWS V14.01,2013-07-10 21:28:00,
2013-07-10 17:33:00,71.6,68.8,28.79,NE,36,0.0,0.0,91,0.31,,BKN095,1.65,VWS V14.01,2013-07-10 21:33:00,
2013-07-10 17:38:00,71.4,68.7,28.79,NE,36,0.0,0.0,91,0.28,,BKN095,1.69,VWS V14.01,2013-07-10 21:38:00,
2013-07-10 17:43:00,71.4,68.3,28.79,NE,36,0.0,0.0,90,0.28,,BKN095,1.69,VWS V14.01,2013-07-10 21:43:00,
2013-07-10 17:49:00,71.6,68.5,28.79,West,260,3.1,3.1,90,0.28,,BKN095,1.73,VWS V14.01,2013-07-10 21:49:00,
2013-07-10 17:54:00,71.6,68.5,28.79,SSW,211,0.0,0.0,90,0.28,,BKN095,1.73,VWS V14.01,2013-07-10 21:54:00,
2013-07-10 17:59:00,71.4,68.7,28.79,SSW,211,0.0,0.0,91,0.28,,BKN095,1.73,VWS V14.01,2013-07-10 21:59:00,
2013-07-10 18:04:00,71.4,68.7,28.76,SSW,211,0.0,0.0,91,0.28,,-RA,1.73,VWS V14.01,2013-07-10 22:04:00,
2013-07-10 18:09:00,71.2,68.5,28.76,SSW,211,2.7,2.7,91,0.28,,-RA,1.73,VWS V14.01,2013-07-10 22:09:00,
2013-07-10 18:14:00,71.2,68.5,28.76,SSW,193,0.0,0.0,91,0.16,,-RA,1.73,VWS V14.01,2013-07-10 22:14:00,
2013-07-10 18:19:00,71.2,68.5,28.79,SSW,193,0.0,0.0,91,0.16,,-RA,1.73,VWS V14.01,2013-07-10 22:19:00,
2013-07-10 18:24:00,71.2,68.5,28.79,SW,221,0.0,0.0,91,0.16,,-RA,1.81,VWS V14.01,2013-07-10 22:24:00,
2013-07-10 18:30:00,70.7,67.6,28.79,SSW,199,4.0,4.0,90,0.16,,-RA,1.81,VWS V14.01,2013-07-10 22:30:00,
2013-07-10 18:35:00,70.5,67.4,28.79,South,185,0.0,0.0,90,0.28,,-RA,1.93,VWS V14.01,2013-07-10 22:35:00,
2013-07-10 18:40:00,70.3,67.3,28.79,South,185,0.0,0.0,90,0.24,,-RA,1.93,VWS V14.01,2013-07-10 22:40:00,
2013-07-10 18:45:00,70.5,67.4,28.79,South,185,0.0,0.0,90,0.24,,-RA,1.93,VWS V14.01,2013-07-10 22:45:00,
2013-07-10 18:50:00,70.9,68.1,28.76,South,185,0.0,0.0,91,0.20,,-RA,1.93,VWS V14.01,2013-07-10 22:50:00,
2013-07-10 18:55:00,70.9,68.1,28.76,South,185,0.0,0.0,91,0.20,,-RA,1.93,VWS V14.01,2013-07-10 22:55:00,
2013-07-10 19:00:00,70.7,67.9,28.76,South,185,0.0,0.0,91,0.20,,-RA,1.93,VWS V14.01,2013-07-10 23:00:00,
2013-07-10 19:02:00,70.7,67.9,28.79,South,185,0.0,0.0,91,0.20,,-RA,1.93,VWS V14.01,2013-07-10 23:02:00,
2013-07-10 19:07:00,70.5,67.8,28.79,South,185,0.0,0.0,91,0.24,,,1.97,VWS V14.01,2013-07-10 23:07:00,
2013-07-10 19:12:00,70.7,67.9,28.79,South,185,0.0,0.0,91,0.24,,,1.97,VWS V14.01,2013-07-10 23:12:00,
2013-07-10 19:17:00,70.5,67.8,28.76,South,185,0.0,0.0,91,0.24,,,1.97,VWS V14.01,2013-07-10 23:17:00,
2013-07-10 19:22:00,70.7,68.3,28.76,South,185,0.0,0.0,92,0.24,,,2.01,VWS V14.01,2013-07-10 23:22:00,
2013-07-10 19:27:00,70.7,68.3,28.76,South,185,0.0,0.0,92,0.20,,,2.01,VWS V14.01,2013-07-10 23:27:00,
2013-07-10 19:32:00,70.7,68.3,28.79,South,185,0.0,0.0,92,0.16,,,2.01,VWS V14.01,2013-07-10 23:32:00,
2013-07-10 19:37:00,70.7,68.3,28.79,South,185,0.0,0.0,92,0.08,,,2.01,VWS V14.01,2013-07-10 23:37:00,
2013-07-10 19:43:00,70.7,68.3,28.79,South,185,0.0,0.0,92,0.08,,,2.01,VWS V14.01,2013-07-10 23:43:00,
2013-07-10 19:48:00,70.7,68.3,28.76,South,185,0.0,0.0,92,0.08,,,2.01,VWS V14.01,2013-07-10 23:48:00,
2013-07-10 19:53:00,70.9,68.8,28.76,South,185,0.0,0.0,93,0.08,,,2.01,VWS V14.01,2013-07-10 23:53:00,
2013-07-10 19:58:00,70.9,68.8,28.76,South,185,0.0,0.0,93,0.08,,,2.01,VWS V14.01,2013-07-10 23:58:00,
2013-07-10 20:03:00,70.7,68.6,28.79,South,185,0.0,0.0,93,0.08,,-RA,2.01,VWS V14.01,2013-07-11 00:03:00,
2013-07-10 20:08:00,70.9,68.8,28.79,South,185,0.0,0.0,93,0.04,,-RA,2.01,VWS V14.01,2013-07-11 00:08:00,
2013-07-10 20:13:00,71.1,69.2,28.79,South,185,0.0,0.0,94,0.04,,-RA,2.01,VWS V14.01,2013-07-11 00:13:00,
2013-07-10 20:18:00,70.9,69.1,28.79,South,185,0.0,0.0,94,0.04,,-RA,2.01,VWS V14.01,2013-07-11 00:18:00,
2013-07-10 20:24:00,70.9,69.1,28.79,South,185,0.0,0.0,94,0.00,,-RA,2.01,VWS V14.01,2013-07-11 00:24:00,
2013-07-10 20:29:00,70.9,69.1,28.79,South,185,0.0,0.0,94,0.00,,-RA,2.01,VWS V14.01,2013-07-11 00:29:00,
2013-07-10 20:34:00,70.9,69.1,28.79,South,185,0.0,0.0,94,0.00,,-RA,2.01,VWS V14.01,2013-07-11 00:34:00,
2013-07-10 20:39:00,71.1,69.6,28.79,South,185,0.0,0.0,95,0.00,,-RA,2.01,VWS V14.01,2013-07-11 00:39:00,
2013-07-10 20:44:00,71.1,69.6,28.79,South,185,0.0,0.0,95,0.00,,-RA,2.01,VWS V14.01,2013-07-11 00:44:00,
2013-07-10 20:49:00,71.1,69.6,28.76,South,185,0.0,0.0,95,0.00,,-RA,2.01,VWS V14.01,2013-07-11 00:49:00,
2013-07-10 20:54:00,71.1,69.6,28.76,South,185,0.0,0.0,95,0.00,,-RA,2.01,VWS V14.01,2013-07-11 00:54:00,
2013-07-10 20:59:00,71.1,69.9,28.76,South,185,0.0,0.0,96,0.00,,-RA,2.01,VWS V14.01,2013-07-11 00:59:00,
2013-07-10 21:04:00,71.1,69.9,28.79,South,185,0.0,0.0,96,0.00,,OVC080,2.01,VWS V14.01,2013-07-11 01:04:00,
2013-07-10 21:09:00,71.1,69.9,28.79,South,185,0.0,0.0,96,0.00,,OVC080,2.01,VWS V14.01,2013-07-11 01:09:00,
2013-07-10 21:10:00,71.1,69.9,28.79,South,185,0.0,0.0,96,0.00,,OVC080,2.01,VWS V14.01,2013-07-11 01:10:00,
2013-07-10 21:15:00,71.1,69.9,28.79,South,185,0.0,0.0,96,0.00,,OVC080,2.01,VWS V14.01,2013-07-11 01:15:00,
2013-07-10 21:20:00,71.1,69.9,28.79,South,185,0.0,0.0,96,0.04,,OVC080,2.05,VWS V14.01,2013-07-11 01:20:00,
2013-07-10 21:25:00,71.1,69.9,28.79,South,185,0.0,0.0,96,0.04,,OVC080,2.05,VWS V14.01,2013-07-11 01:25:00,
2013-07-10 21:30:00,71.2,70.1,28.79,South,185,0.0,0.0,96,0.04,,OVC080,2.05,VWS V14.01,2013-07-11 01:30:00,
2013-07-10 21:35:00,71.2,70.3,28.76,South,185,0.0,0.0,97,0.04,,OVC080,2.05,VWS V14.01,2013-07-11 01:35:00,
2013-07-10 21:40:00,71.1,70.2,28.76,South,185,0.0,0.0,97,0.04,,OVC080,2.05,VWS V14.01,2013-07-11 01:40:00,
2013-07-10 21:45:00,71.1,70.2,28.76,South,185,0.0,0.0,97,0.04,,OVC080,2.05,VWS V14.01,2013-07-11 01:45:00,
2013-07-10 21:51:00,71.1,70.2,28.76,South,185,0.0,0.0,97,0.04,,OVC080,2.05,VWS V14.01,2013-07-11 01:51:00,
2013-07-10 21:56:00,71.1,70.2,28.76,South,185,0.0,0.0,97,0.04,,OVC080,2.05,VWS V14.01,2013-07-11 01:56:00,
2013-07-10 22:01:00,71.1,70.2,28.76,South,185,0.0,0.0,97,0.04,,OVC080,2.05,VWS V14.01,2013-07-11 02:01:00,
2013-07-10 22:06:00,70.9,70.0,28.76,South,185,0.0,0.0,97,0.04,,-RA,2.05,VWS V14.01,2013-07-11 02:06:00,